Time;durP1;ratioP1;P1;durP2;ratioP2;P2;SDS_P1;SDS_P2;PMS_P1;PMS_P2;Temp;Humidity;BMP_temperature;BMP_pressure;BME280_temperature;BME280_humidity;BME280_pressure;Samples;Min_cycle;Max_cycle;Signal;HPM_P1;HPM_P2
2022/01/19 00:01:19;;;;;;;162.18;75.07;;;2.80;99.90;;;;;;5113755;28;20032;-65
2022/01/19 00:03:46;;;;;;;169.88;78.32;;;2.80;99.90;;;;;;5110700;28;20031;-66
2022/01/19 00:06:12;;;;;;;167.48;76.88;;;2.80;99.90;;;;;;5095246;28;20102;-66
2022/01/19 00:08:38;;;;;;;170.60;77.22;;;2.80;99.90;;;;;;5113527;28;20022;-66
2022/01/19 00:11:05;;;;;;;176.93;79.35;;;2.70;99.90;;;;;;5111738;28;20106;-67
2022/01/19 00:13:32;;;;;;;176.10;80.70;;;2.80;99.90;;;;;;5105016;28;20070;-65
2022/01/19 00:15:58;;;;;;;163.93;75.25;;;2.80;99.90;;;;;;5113801;28;20028;-65
2022/01/19 00:18:25;;;;;;;178.13;76.43;;;2.70;99.90;;;;;;5105626;28;20586;-65
2022/01/19 00:20:53;;;;;;;162.90;75.18;;;2.80;99.90;;;;;;5093277;28;20032;-65
2022/01/19 00:23:20;;;;;;;177.25;81.15;;;2.80;99.90;;;;;;5093290;28;20020;-65
2022/01/19 00:25:48;;;;;;;167.30;77.22;;;2.80;99.90;;;;;;5080938;28;21134;-65
2022/01/19 00:28:14;;;;;;;169.27;73.65;;;2.70;99.90;;;;;;5110758;28;20019;-65
2022/01/19 00:30:41;;;;;;;170.18;78.97;;;2.80;99.90;;;;;;5096602;28;20122;-65
2022/01/19 00:33:07;;;;;;;153.88;74.97;;;2.70;99.90;;;;;;5096059;28;20370;-65
2022/01/19 00:35:37;;;;;;;176.10;76.75;;;2.60;99.90;;;;;;5109127;28;20032;-65
2022/01/19 00:38:04;;;;;;;166.43;74.68;;;2.60;99.90;;;;;;5113390;28;20035;-65
2022/01/19 00:40:30;;;;;;;171.15;75.82;;;2.60;99.90;;;;;;5113173;28;20047;-66
2022/01/19 00:42:56;;;;;;;174.00;74.13;;;2.60;99.90;;;;;;5095131;28;20027;-65
2022/01/19 00:45:22;;;;;;;171.02;75.40;;;2.60;99.90;;;;;;5113222;28;20040;-65
2022/01/19 00:47:49;;;;;;;170.75;75.15;;;2.50;99.90;;;;;;5095008;28;20035;-66
2022/01/19 00:50:28;;;;;;;154.68;71.72;;;2.60;99.90;;;;;;5113240;28;20031;-66
2022/01/19 00:52:55;;;;;;;173.73;75.75;;;2.60;99.90;;;;;;5095179;28;20032;-66
2022/01/19 00:55:25;;;;;;;172.30;76.72;;;2.60;99.90;;;;;;5113619;28;20165;-66
2022/01/19 00:57:51;;;;;;;183.15;77.35;;;2.60;99.90;;;;;;5112760;28;20032;-66
2022/01/19 01:00:20;;;;;;;159.13;73.97;;;2.60;99.90;;;;;;5094979;28;20036;-65
2022/01/19 01:02:46;;;;;;;170.60;77.38;;;2.60;99.90;;;;;;5112924;28;20038;-66
2022/01/19 01:05:13;;;;;;;177.90;79.25;;;2.40;99.90;;;;;;5112796;28;20114;-66
2022/01/19 01:07:40;;;;;;;174.98;79.60;;;2.60;99.90;;;;;;5112866;28;20059;-66
2022/01/19 01:10:08;;;;;;;179.10;77.68;;;2.50;99.90;;;;;;5112376;28;20038;-65
2022/01/19 01:12:46;;;;;;;189.18;80.35;;;2.60;99.90;;;;;;5094842;28;20087;-65
2022/01/19 01:20:36;;;;;;;187.40;81.78;;;2.60;99.90;;;;;;5112893;28;20032;-66
2022/01/19 01:23:04;;;;;;;207.65;82.43;;;2.80;99.90;;;;;;5117161;28;20028;-65
2022/01/19 01:25:30;;;;;;;194.70;82.72;;;2.70;99.90;;;;;;5117101;28;20039;-65
2022/01/19 01:27:56;;;;;;;184.93;77.78;;;2.70;99.90;;;;;;5116603;28;20031;-66
2022/01/19 01:30:22;;;;;;;204.95;80.13;;;2.70;99.90;;;;;;5111342;28;20039;-65
2022/01/19 01:32:48;;;;;;;255.52;88.18;;;2.60;99.90;;;;;;5111649;28;20110;-66
2022/01/19 01:35:14;;;;;;;204.02;78.38;;;2.50;99.90;;;;;;5110122;28;20028;-66
2022/01/19 01:37:40;;;;;;;228.68;79.78;;;2.60;99.90;;;;;;5097958;28;20053;-66
2022/01/19 01:40:09;;;;;;;188.43;77.10;;;2.40;99.90;;;;;;5108360;28;20047;-65
2022/01/19 01:42:36;;;;;;;190.95;74.57;;;2.40;99.90;;;;;;5102490;28;20474;-65
2022/01/19 01:45:03;;;;;;;173.65;69.50;;;2.30;99.90;;;;;;5101889;28;20032;-65
2022/01/19 01:47:32;;;;;;;207.02;73.60;;;2.30;99.90;;;;;;5077964;28;20028;-66
2022/01/19 01:55:12;;;;;;;238.45;67.07;;;2.10;99.90;;;;;;5116792;28;20526;-66
2022/01/19 01:57:38;;;;;;;144.45;50.70;;;2.00;99.90;;;;;;5097579;28;20060;-66
2022/01/19 02:00:10;;;;;;;152.55;54.95;;;1.70;99.90;;;;;;5116262;28;20028;-65
2022/01/19 02:02:37;;;;;;;145.52;51.42;;;1.60;99.90;;;;;;5097011;28;20032;-65
2022/01/19 02:05:03;;;;;;;178.70;50.13;;;1.50;99.90;;;;;;5115444;28;20032;-65
2022/01/19 02:07:39;;;;;;;239.80;50.33;;;1.30;99.90;;;;;;5115554;28;20073;-65
2022/01/19 02:16:24;;;;;;;264.40;62.08;;;1.00;99.90;;;;;;5116092;28;20081;-66
2022/01/19 02:21:46;;;;;;;184.50;49.67;;;1.10;99.90;;;;;;5115426;28;20421;-65
2022/01/19 02:24:18;;;;;;;213.55;49.83;;;1.10;99.90;;;;;;5114422;28;20036;-65
2022/01/19 02:40:15;;;;;;;195.60;57.00;;;0.90;99.90;;;;;;5113592;28;20040;-66
2022/01/19 02:50:32;;;;;;;380.27;77.85;;;0.80;99.90;;;;;;5113331;28;20505;-66
2022/01/19 02:52:58;;;;;;;144.10;52.00;;;0.80;99.90;;;;;;5102024;28;20039;-66
2022/01/19 02:55:25;;;;;;;159.40;52.03;;;0.90;99.90;;;;;;5114817;28;20042;-66
2022/01/19 02:57:51;;;;;;;190.30;56.25;;;1.00;99.90;;;;;;5091408;28;20032;-65
2022/01/19 03:08:47;;;;;;;184.20;60.50;;;1.30;99.90;;;;;;5113234;27;20043;-65
2022/01/19 03:11:18;;;;;;;166.88;60.33;;;1.30;99.90;;;;;;5110701;27;20066;-66
2022/01/19 03:13:47;;;;;;;129.75;56.03;;;1.30;99.90;;;;;;5109137;28;20084;-67
2022/01/19 03:16:14;;;;;;;209.80;66.03;;;1.30;99.90;;;;;;5110237;27;20042;-66
2022/01/19 03:18:40;;;;;;;197.98;62.72;;;1.30;99.90;;;;;;5094745;28;20039;-69
2022/01/19 03:21:06;;;;;;;211.63;65.10;;;1.40;99.90;;;;;;5095962;28;20567;-66
2022/01/19 03:23:33;;;;;;;141.73;55.97;;;1.40;99.90;;;;;;5115069;27;20096;-67
2022/01/19 03:26:04;;;;;;;185.50;64.35;;;1.40;99.90;;;;;;5111965;28;20038;-66
2022/01/19 03:29:01;;;;;;;142.00;54.35;;;1.50;99.90;;;;;;5092429;28;20035;-66
2022/01/19 03:31:27;;;;;;;123.07;51.88;;;1.40;99.90;;;;;;5118755;27;20039;-66
2022/01/19 03:33:53;;;;;;;118.43;49.95;;;1.50;99.90;;;;;;5112843;27;20051;-67
2022/01/19 03:36:19;;;;;;;119.95;51.65;;;1.50;99.90;;;;;;5120049;27;20031;-67
2022/01/19 03:38:45;;;;;;;125.60;51.50;;;1.50;99.90;;;;;;5110455;27;20079;-67
2022/01/19 03:41:11;;;;;;;234.02;66.90;;;1.50;99.90;;;;;;5111688;28;20043;-66
2022/01/19 03:43:38;;;;;;;221.80;64.68;;;1.60;99.90;;;;;;5108241;28;20073;-65
2022/01/19 03:46:12;;;;;;;137.35;50.40;;;1.60;99.90;;;;;;5109494;28;20034;-66
2022/01/19 03:48:45;;;;;;;139.63;52.58;;;1.50;99.90;;;;;;5112462;28;20024;-66
2022/01/19 03:51:12;;;;;;;178.13;59.83;;;1.50;99.90;;;;;;5094353;28;20040;-67
2022/01/19 03:53:39;;;;;;;156.73;55.88;;;1.60;99.90;;;;;;5112716;28;20119;-66
2022/01/19 03:56:05;;;;;;;282.95;70.57;;;1.60;99.90;;;;;;5112726;28;20217;-66
2022/01/19 03:58:32;;;;;;;163.05;59.63;;;1.60;99.90;;;;;;5112276;27;20144;-66
2022/01/19 04:00:59;;;;;;;147.60;56.15;;;1.70;99.90;;;;;;5113986;27;20054;-67
2022/01/19 04:03:47;;;;;;;133.32;55.53;;;1.70;99.90;;;;;;5111851;28;20036;-67
2022/01/19 04:06:24;;;;;;;198.23;65.30;;;1.70;99.90;;;;;;5112457;28;20061;-67
2022/01/19 04:08:50;;;;;;;169.63;60.38;;;1.80;99.90;;;;;;5100013;28;20036;-66
2022/01/19 04:11:18;;;;;;;137.18;54.17;;;1.80;99.90;;;;;;5113219;28;20039;-68
2022/01/19 04:14:21;;;;;;;184.05;62.03;;;1.80;99.90;;;;;;5111580;28;20035;-66
2022/01/19 04:16:31;;;;;;;167.98;62.08;;;1.80;99.90;;;;;;5110092;28;20035;-66
2022/01/19 04:21:47;;;;;;;140.90;59.25;;;1.80;99.90;;;;;;5067972;28;20042;-67
2022/01/19 04:24:13;;;;;;;179.32;68.55;;;1.80;99.90;;;;;;5110405;28;20047;-69
2022/01/19 04:26:39;;;;;;;145.75;63.25;;;1.80;99.90;;;;;;5112500;28;20489;-71
2022/01/19 04:29:05;;;;;;;183.75;74.00;;;1.90;99.90;;;;;;5110734;28;20040;-67
2022/01/19 04:31:32;;;;;;;172.73;73.25;;;1.90;99.90;;;;;;5112842;28;20039;-68
2022/01/19 04:34:03;;;;;;;162.63;73.18;;;1.90;99.90;;;;;;5111797;27;20502;-65
2022/01/19 04:36:47;;;;;;;179.85;73.50;;;1.90;99.90;;;;;;5111126;28;20036;-65
2022/01/19 05:06:42;;;;;;;163.70;62.65;;;2.20;99.90;;;;;;5108542;28;20074;-66
2022/01/19 05:09:28;;;;;;;146.35;59.25;;;2.20;99.90;;;;;;5107295;28;20059;-67
2022/01/19 05:14:39;;;;;;;131.43;58.97;;;2.40;99.90;;;;;;5106732;28;20448;-66
2022/01/19 05:17:05;;;;;;;141.82;61.47;;;2.50;99.90;;;;;;5108128;28;20470;-66
2022/01/19 05:19:31;;;;;;;155.82;64.07;;;2.40;99.90;;;;;;5107204;28;20055;-67
2022/01/19 05:21:57;;;;;;;156.10;64.82;;;2.50;99.90;;;;;;5106815;28;20491;-66
2022/01/19 05:24:23;;;;;;;128.95;59.17;;;2.50;99.90;;;;;;5109872;28;20036;-66
2022/01/19 05:26:51;;;;;;;116.70;55.97;;;2.60;99.90;;;;;;5110354;28;20038;-65
2022/01/19 05:29:17;;;;;;;117.40;53.47;;;2.30;99.90;;;;;;5110717;28;20070;-67
2022/01/19 05:31:44;;;;;;;106.30;49.58;;;2.30;99.90;;;;;;5108653;28;20043;-67
2022/01/19 05:34:10;;;;;;;115.18;52.13;;;2.20;99.90;;;;;;5109969;28;20044;-68
2022/01/19 05:36:37;;;;;;;108.60;50.10;;;2.30;99.90;;;;;;5092222;28;20087;-68
2022/01/19 05:39:05;;;;;;;134.82;55.30;;;2.30;99.90;;;;;;5112060;28;20043;-70
2022/01/19 05:41:32;;;;;;;132.95;53.53;;;2.30;99.90;;;;;;5087990;28;20117;-68
2022/01/19 05:43:58;;;;;;;112.45;53.00;;;2.40;99.90;;;;;;5109128;28;20074;-67
2022/01/19 05:46:25;;;;;;;118.45;51.97;;;2.20;99.90;;;;;;5105295;28;20039;-67
2022/01/19 05:48:51;;;;;;;93.90;47.72;;;2.00;99.90;;;;;;5107525;28;20114;-67
2022/01/19 05:51:17;;;;;;;87.35;44.03;;;1.80;99.90;;;;;;5104253;28;20036;-66
2022/01/19 05:53:43;;;;;;;86.22;42.55;;;1.80;99.90;;;;;;5104576;28;20456;-67
2022/01/19 05:56:09;;;;;;;69.45;33.95;;;1.80;99.90;;;;;;5107030;28;20164;-67
2022/01/19 05:58:35;;;;;;;55.47;28.60;;;1.70;99.90;;;;;;5105895;28;20039;-66
2022/01/19 06:01:02;;;;;;;52.58;27.85;;;1.60;99.90;;;;;;5106608;28;20071;-67
2022/01/19 06:03:28;;;;;;;48.72;24.45;;;1.60;99.90;;;;;;5092115;28;20036;-67
2022/01/19 06:05:54;;;;;;;40.05;24.13;;;1.70;99.90;;;;;;5090196;28;20039;-66
2022/01/19 06:10:48;;;;;;;29.55;19.05;;;1.50;99.90;;;;;;5112057;28;20047;-67
2022/01/19 06:13:18;;;;;;;37.95;24.48;;;1.50;99.90;;;;;;5109151;28;20039;-66
2022/01/19 06:15:45;;;;;;;34.67;22.38;;;1.60;99.90;;;;;;5110667;28;20520;-66
2022/01/19 06:18:12;;;;;;;34.13;22.48;;;1.60;99.90;;;;;;5109346;28;20028;-67
2022/01/19 06:20:39;;;;;;;21.25;13.82;;;1.50;99.90;;;;;;5111521;28;20039;-65
2022/01/19 06:23:05;;;;;;;18.88;12.75;;;1.40;99.90;;;;;;5111876;28;20027;-67
2022/01/19 06:25:31;;;;;;;22.08;13.30;;;1.50;99.90;;;;;;5110141;28;20344;-67
2022/01/19 06:27:57;;;;;;;21.48;14.10;;;1.40;99.90;;;;;;5095501;28;20374;-66
2022/01/19 06:30:23;;;;;;;30.85;17.92;;;1.30;99.90;;;;;;5109592;28;20113;-65
2022/01/19 06:32:50;;;;;;;34.03;20.80;;;1.30;99.90;;;;;;5098088;28;20046;-68
2022/01/19 06:35:54;;;;;;;31.35;20.25;;;1.30;99.90;;;;;;5113874;28;20031;-66
2022/01/19 06:38:21;;;;;;;33.60;20.48;;;1.30;99.90;;;;;;5113972;28;20027;-67
2022/01/19 06:40:47;;;;;;;38.65;23.70;;;1.20;99.90;;;;;;5113559;28;20382;-67
2022/01/19 06:43:13;;;;;;;40.10;24.40;;;1.10;99.90;;;;;;5095748;28;20036;-67
2022/01/19 06:45:39;;;;;;;40.90;25.58;;;1.20;99.90;;;;;;5114464;28;20055;-68
2022/01/19 06:48:06;;;;;;;40.20;24.33;;;1.20;99.90;;;;;;5094921;28;20602;-67
2022/01/19 06:50:32;;;;;;;39.20;23.98;;;1.20;99.90;;;;;;5094821;28;20035;-66
2022/01/19 06:52:58;;;;;;;38.08;24.02;;;1.40;99.90;;;;;;5093545;27;20039;-67
2022/01/19 06:55:24;;;;;;;39.92;24.85;;;1.40;99.90;;;;;;5112136;28;20039;-66
2022/01/19 06:57:50;;;;;;;37.40;25.05;;;1.50;99.90;;;;;;5114637;27;20088;-68
2022/01/19 07:00:17;;;;;;;37.47;25.63;;;1.40;99.90;;;;;;5096076;28;20036;-68
2022/01/19 07:02:43;;;;;;;38.15;24.88;;;1.30;99.90;;;;;;5113738;28;20030;-67
2022/01/19 07:05:09;;;;;;;40.97;26.48;;;1.30;99.90;;;;;;5114465;28;20469;-67
2022/01/19 07:07:35;;;;;;;38.00;28.02;;;1.40;99.90;;;;;;5098570;28;20032;-67
2022/01/19 07:10:01;;;;;;;40.70;29.85;;;1.40;99.90;;;;;;5112727;28;20047;-66
2022/01/19 07:12:29;;;;;;;37.45;27.45;;;1.30;99.90;;;;;;5112793;28;20023;-68
2022/01/19 07:14:55;;;;;;;35.78;26.25;;;1.30;99.90;;;;;;5111674;28;20058;-66
2022/01/19 07:17:21;;;;;;;37.17;27.02;;;1.30;99.90;;;;;;5092263;28;20036;-67
2022/01/19 07:19:47;;;;;;;41.15;28.38;;;1.30;99.90;;;;;;5091866;28;20038;-67
2022/01/19 07:22:15;;;;;;;26.52;19.13;;;1.30;99.90;;;;;;5113618;28;20101;-68
2022/01/19 07:24:42;;;;;;;26.48;17.52;;;1.30;99.90;;;;;;5112514;28;20069;-68
2022/01/19 07:27:08;;;;;;;23.67;16.95;;;1.30;99.90;;;;;;5112195;28;20028;-69
2022/01/19 07:29:35;;;;;;;21.60;17.08;;;1.20;99.90;;;;;;5111583;28;20034;-68
2022/01/19 07:32:01;;;;;;;24.70;19.75;;;1.40;99.90;;;;;;5111725;28;20080;-67
2022/01/19 07:34:29;;;;;;;28.40;19.52;;;1.40;99.90;;;;;;5113204;28;20041;-67
2022/01/19 07:36:55;;;;;;;25.10;19.48;;;1.40;99.90;;;;;;5113057;28;20031;-67
2022/01/19 07:39:22;;;;;;;29.13;20.10;;;1.50;99.90;;;;;;5090339;28;20044;-68
2022/01/19 07:41:50;;;;;;;28.33;21.90;;;1.40;99.90;;;;;;5093190;28;20036;-67
2022/01/19 07:44:16;;;;;;;30.98;22.45;;;1.40;99.90;;;;;;5094340;28;20035;-66
2022/01/19 07:46:42;;;;;;;29.33;22.55;;;1.40;99.90;;;;;;5093021;28;20063;-68
2022/01/19 07:49:08;;;;;;;29.65;21.02;;;1.40;99.90;;;;;;5088210;28;20498;-67
2022/01/19 07:51:35;;;;;;;33.53;22.98;;;1.40;99.90;;;;;;5092177;28;20036;-67
2022/01/19 07:54:01;;;;;;;34.08;25.05;;;1.50;99.90;;;;;;5090295;28;20066;-70
2022/01/19 07:56:27;;;;;;;36.17;26.48;;;1.50;99.90;;;;;;5092861;28;20066;-67
2022/01/19 07:58:53;;;;;;;37.47;28.70;;;1.40;99.90;;;;;;5096671;28;20470;-66
2022/01/19 08:01:19;;;;;;;40.25;28.40;;;1.50;99.90;;;;;;5092450;28;20036;-69
2022/01/19 08:03:45;;;;;;;41.65;29.75;;;1.50;99.90;;;;;;5089962;28;20082;-67
2022/01/19 08:06:11;;;;;;;38.78;29.67;;;1.50;99.90;;;;;;5091609;28;20374;-65
2022/01/19 08:08:37;;;;;;;42.83;30.90;;;1.50;99.90;;;;;;5092269;28;20546;-66
2022/01/19 08:11:04;;;;;;;43.90;32.95;;;1.50;99.90;;;;;;5091792;28;20059;-70
2022/01/19 08:13:30;;;;;;;45.47;32.42;;;1.40;99.90;;;;;;5094956;28;20039;-67
2022/01/19 08:15:56;;;;;;;44.28;32.15;;;1.50;99.90;;;;;;5092762;28;20523;-67
2022/01/19 08:18:22;;;;;;;46.30;32.67;;;1.50;99.90;;;;;;5094009;28;20031;-69
2022/01/19 08:20:48;;;;;;;51.05;34.95;;;1.60;99.90;;;;;;5090725;28;20502;-66
2022/01/19 08:23:14;;;;;;;52.45;36.72;;;1.60;99.90;;;;;;5091531;28;20024;-68
2022/01/19 08:25:41;;;;;;;50.40;36.17;;;1.70;99.90;;;;;;5092042;28;20077;-67
2022/01/19 08:28:07;;;;;;;51.72;38.58;;;1.80;99.90;;;;;;5089524;28;20038;-66
2022/01/19 08:30:36;;;;;;;53.78;39.63;;;1.80;99.90;;;;;;5087721;28;20024;-69
2022/01/19 08:33:02;;;;;;;55.95;38.63;;;1.90;99.90;;;;;;5086825;28;20031;-66
2022/01/19 08:35:31;;;;;;;56.55;39.83;;;1.90;99.90;;;;;;5090633;28;20024;-69
2022/01/19 08:37:57;;;;;;;63.05;42.33;;;2.00;99.90;;;;;;5088168;28;20086;-66
2022/01/19 08:40:28;;;;;;;56.42;40.30;;;2.10;99.90;;;;;;5103771;28;20390;-67
2022/01/19 08:42:54;;;;;;;54.58;40.50;;;2.20;99.90;;;;;;5110820;28;20035;-67
2022/01/19 08:45:20;;;;;;;57.53;40.97;;;2.00;99.90;;;;;;5110824;28;20118;-65
2022/01/19 08:47:46;;;;;;;56.50;41.53;;;2.00;99.90;;;;;;5093220;28;20070;-67
2022/01/19 08:50:15;;;;;;;55.50;39.35;;;2.00;99.90;;;;;;5091808;28;20036;-67
2022/01/19 08:52:49;;;;;;;58.88;42.03;;;1.90;99.90;;;;;;5093161;28;20508;-66
2022/01/19 08:55:16;;;;;;;57.22;39.03;;;1.90;99.90;;;;;;5107354;28;20036;-66
2022/01/19 08:57:45;;;;;;;54.88;37.72;;;1.90;99.90;;;;;;5110730;28;20085;-69
2022/01/19 09:00:14;;;;;;;55.40;38.03;;;1.80;99.90;;;;;;5111954;28;20028;-67
2022/01/19 09:02:41;;;;;;;50.15;35.92;;;1.70;99.90;;;;;;5110016;28;20508;-68
2022/01/19 09:05:07;;;;;;;51.78;37.60;;;1.70;99.90;;;;;;5112130;28;20020;-67
2022/01/19 09:07:34;;;;;;;52.80;38.97;;;1.60;99.90;;;;;;5093257;28;20064;-67
2022/01/19 09:10:00;;;;;;;62.63;40.95;;;1.50;99.90;;;;;;5111171;28;20089;-67
2022/01/19 09:12:26;;;;;;;55.67;37.28;;;1.50;99.90;;;;;;5112775;28;20039;-67
2022/01/19 09:15:48;;;;;;;60.45;41.55;;;1.50;99.90;;;;;;5112935;28;20040;-70
2022/01/19 09:18:14;;;;;;;71.65;45.85;;;1.50;99.90;;;;;;5109832;28;20050;-68
2022/01/19 09:20:40;;;;;;;62.47;42.90;;;1.20;99.90;;;;;;5110116;28;20118;-68
2022/01/19 09:23:06;;;;;;;71.75;47.20;;;1.20;99.90;;;;;;5092819;28;20035;-68
2022/01/19 09:25:32;;;;;;;65.72;45.80;;;1.00;99.90;;;;;;5093355;28;20118;-69
2022/01/19 09:27:59;;;;;;;78.00;50.17;;;1.00;99.90;;;;;;5092611;28;20047;-68
2022/01/19 09:30:25;;;;;;;82.78;50.72;;;0.90;99.90;;;;;;5092061;28;20024;-68
2022/01/19 09:33:24;;;;;;;90.00;55.88;;;0.90;99.90;;;;;;5112787;28;20038;-69
2022/01/19 09:36:06;;;;;;;122.85;70.72;;;0.60;99.90;;;;;;5109519;28;20028;-69
2022/01/19 09:38:40;;;;;;;209.27;99.28;;;0.50;99.90;;;;;;5110240;27;20114;-69
2022/01/19 09:41:07;;;;;;;223.95;111.78;;;0.40;99.90;;;;;;5104933;28;20031;-66
2022/01/19 09:43:35;;;;;;;191.23;105.43;;;0.40;99.90;;;;;;5110643;28;20051;-66
2022/01/19 09:46:05;;;;;;;186.52;104.38;;;0.20;99.90;;;;;;5113233;28;20036;-67
2022/01/19 09:48:31;;;;;;;173.70;103.88;;;0.40;99.90;;;;;;5112249;28;20055;-67
2022/01/19 09:50:57;;;;;;;197.80;116.53;;;0.30;99.90;;;;;;5097846;27;20043;-67
2022/01/19 09:53:24;;;;;;;189.13;117.93;;;0.00;99.90;;;;;;5114737;27;20055;-68
2022/01/19 09:55:50;;;;;;;203.27;116.25;;;0.10;99.90;;;;;;5113475;28;20101;-66
2022/01/19 09:58:18;;;;;;;211.98;119.30;;;0.00;99.90;;;;;;5114215;28;20040;-67
2022/01/19 10:00:44;;;;;;;192.73;113.28;;;-0.10;99.90;;;;;;5107855;28;20039;-67
2022/01/19 10:03:19;;;;;;;202.65;112.35;;;0.00;99.90;;;;;;5115108;28;20027;-68
2022/01/19 10:06:09;;;;;;;184.95;106.85;;;-0.10;99.90;;;;;;5112911;27;20035;-67
2022/01/19 10:08:40;;;;;;;187.40;108.82;;;0.00;99.90;;;;;;5111900;28;20512;-67
2022/01/19 10:11:18;;;;;;;178.27;100.30;;;-0.10;99.90;;;;;;5114485;28;20028;-68
2022/01/19 10:19:22;;;;;;;143.40;83.00;;;-0.20;99.90;;;;;;5113947;28;20078;-66
2022/01/19 10:22:00;;;;;;;137.73;80.45;;;-0.20;99.90;;;;;;5114615;28;20205;-66
2022/01/19 10:24:52;;;;;;;121.03;70.18;;;-0.20;99.90;;;;;;5113977;28;20118;-66
2022/01/19 10:27:35;;;;;;;113.80;63.72;;;-0.10;99.90;;;;;;5111321;28;20035;-67
2022/01/19 10:30:04;;;;;;;87.32;53.92;;;-0.20;99.90;;;;;;5110996;28;20504;-66
2022/01/19 10:33:00;;;;;;;76.45;48.80;;;-0.20;99.90;;;;;;5113161;28;20042;-65
2022/01/19 10:35:37;;;;;;;86.45;51.72;;;-0.30;99.90;;;;;;5113789;27;20124;-66
2022/01/19 10:38:18;;;;;;;78.28;47.47;;;-0.30;99.90;;;;;;5094939;28;20048;-66
2022/01/19 10:41:01;;;;;;;80.32;47.30;;;-0.20;99.90;;;;;;5070950;28;20044;-68
2022/01/19 10:43:32;;;;;;;75.20;43.15;;;-0.30;99.90;;;;;;5074002;28;20021;-65
2022/01/19 10:46:01;;;;;;;81.90;50.83;;;-0.20;99.90;;;;;;5071852;28;20033;-66
2022/01/19 10:48:39;;;;;;;80.90;49.20;;;-0.20;99.90;;;;;;5076213;28;20103;-66
2022/01/19 10:51:09;;;;;;;86.20;48.53;;;-0.20;99.90;;;;;;5067891;28;20032;-67
2022/01/19 10:53:35;;;;;;;67.22;42.40;;;-0.20;99.90;;;;;;5072112;28;20028;-67
2022/01/19 10:56:05;;;;;;;55.70;36.15;;;-0.20;99.90;;;;;;5074461;28;20036;-66
2022/01/19 10:58:32;;;;;;;45.10;29.77;;;-0.10;99.90;;;;;;5077588;28;20028;-67
2022/01/19 11:00:58;;;;;;;41.08;27.27;;;-0.20;99.90;;;;;;5071035;28;20106;-67
2022/01/19 11:03:28;;;;;;;35.80;23.60;;;-0.10;99.90;;;;;;5079542;28;20078;-66
2022/01/19 11:05:56;;;;;;;30.60;20.45;;;-0.20;99.90;;;;;;5087561;28;20052;-67
2022/01/19 11:08:25;;;;;;;24.50;17.85;;;-0.20;99.90;;;;;;5083004;28;20024;-67
2022/01/19 11:10:54;;;;;;;26.80;16.95;;;-0.20;99.90;;;;;;5057303;28;20039;-68
2022/01/19 11:13:28;;;;;;;27.80;17.58;;;-0.20;99.90;;;;;;5078153;28;20033;-68
2022/01/19 11:16:00;;;;;;;33.42;17.88;;;-0.10;99.90;;;;;;5078021;28;20052;-67
2022/01/19 11:18:32;;;;;;;28.38;16.25;;;-0.20;99.90;;;;;;5077579;28;20040;-67
2022/01/19 11:21:12;;;;;;;24.63;14.90;;;-0.20;99.90;;;;;;5075482;28;20084;-67
2022/01/19 11:23:55;;;;;;;26.90;16.48;;;-0.10;99.90;;;;;;5074698;28;20028;-66
2022/01/19 11:26:29;;;;;;;24.65;16.08;;;-0.10;99.90;;;;;;5066824;28;20032;-67
2022/01/19 11:29:11;;;;;;;32.40;15.98;;;-0.20;99.90;;;;;;5071006;28;20029;-67
2022/01/19 11:31:38;;;;;;;33.10;17.20;;;-0.20;99.90;;;;;;5070576;28;20028;-67
2022/01/19 11:34:05;;;;;;;38.00;23.55;;;-0.20;99.90;;;;;;5070887;28;20091;-69
2022/01/19 11:36:42;;;;;;;42.35;27.00;;;-0.20;99.90;;;;;;5072180;28;20056;-67
2022/01/19 11:39:20;;;;;;;41.08;26.40;;;-0.20;99.90;;;;;;5091539;27;20504;-66
2022/01/19 11:41:55;;;;;;;36.83;24.30;;;-0.20;99.90;;;;;;5110777;27;20038;-67
2022/01/19 11:44:33;;;;;;;43.10;26.27;;;-0.10;99.90;;;;;;5114319;28;20028;-67
2022/01/19 11:47:22;;;;;;;38.78;25.70;;;-0.10;99.90;;;;;;5095114;28;20035;-66
2022/01/19 11:49:58;;;;;;;37.72;25.95;;;-0.10;99.90;;;;;;5112109;28;20094;-66
2022/01/19 11:52:46;;;;;;;47.00;30.33;;;-0.10;99.90;;;;;;5111551;28;20032;-67
2022/01/19 11:55:26;;;;;;;54.55;35.05;;;0.00;99.90;;;;;;5112474;28;20584;-67
2022/01/19 11:58:24;;;;;;;52.85;34.75;;;0.00;99.90;;;;;;5113171;28;20027;-69
2022/01/19 12:00:55;;;;;;;45.78;31.83;;;0.00;99.90;;;;;;5103557;28;20039;-68
2022/01/19 12:03:24;;;;;;;51.35;35.60;;;-0.10;99.90;;;;;;5105141;28;20421;-68
2022/01/19 12:05:53;;;;;;;58.88;40.35;;;0.10;99.90;;;;;;5099720;28;20449;-69
2022/01/19 12:08:30;;;;;;;59.50;38.38;;;0.00;99.90;;;;;;5090203;28;20119;-69
2022/01/19 12:11:11;;;;;;;63.08;39.15;;;0.00;99.90;;;;;;5091962;28;20043;-70
2022/01/19 12:13:57;;;;;;;66.57;43.90;;;0.00;99.90;;;;;;5112564;28;20062;-71
2022/01/19 12:19:04;;;;;;;78.25;41.33;;;0.00;99.90;;;;;;5115761;27;20384;-70
2022/01/19 12:21:33;;;;;;;72.80;41.13;;;0.00;99.90;;;;;;5111909;28;20031;-70
2022/01/19 12:24:22;;;;;;;66.15;42.13;;;0.00;99.90;;;;;;5093226;28;20028;-71
2022/01/19 12:26:51;;;;;;;63.30;40.58;;;0.00;99.90;;;;;;5113289;28;20053;-72
2022/01/19 12:29:38;;;;;;;66.50;43.58;;;0.00;99.90;;;;;;5097533;28;20054;-71
2022/01/19 12:32:16;;;;;;;64.32;40.63;;;-0.10;99.90;;;;;;5097918;28;20040;-71
2022/01/19 12:34:53;;;;;;;68.38;43.85;;;0.00;99.90;;;;;;5113174;28;20028;-71
2022/01/19 12:37:37;;;;;;;70.00;46.53;;;0.00;99.90;;;;;;5112686;28;20028;-71
2022/01/19 12:43:34;;;;;;;73.60;44.67;;;-0.10;99.90;;;;;;5074932;28;20047;-71
2022/01/19 12:46:01;;;;;;;72.13;43.33;;;0.00;99.90;;;;;;5073708;28;20116;-70
2022/01/19 12:48:35;;;;;;;63.92;39.90;;;0.00;99.90;;;;;;5087979;28;20024;-70
2022/01/19 12:51:01;;;;;;;58.35;39.67;;;0.00;99.90;;;;;;5094383;28;20482;-70
2022/01/19 12:53:27;;;;;;;62.90;40.17;;;0.00;99.90;;;;;;5093937;28;20106;-70
2022/01/19 12:56:11;;;;;;;65.18;40.42;;;0.10;99.90;;;;;;5092863;28;20367;-69
2022/01/19 13:02:00;;;;;;;62.97;39.10;;;0.10;99.90;;;;;;5088694;28;20136;-69
2022/01/19 13:04:31;;;;;;;59.75;37.58;;;0.20;99.90;;;;;;5083138;28;20104;-68
2022/01/19 13:07:20;;;;;;;70.05;43.80;;;0.20;99.90;;;;;;5070167;28;20028;-69
2022/01/19 15:00:29;;;;;;;33.17;20.80;;;0.40;99.90;;;;;;5104049;27;20035;-66
2022/01/19 15:03:01;;;;;;;32.38;22.38;;;0.50;99.90;;;;;;5094775;28;20573;-66
2022/01/19 15:05:33;;;;;;;31.05;21.45;;;0.50;99.90;;;;;;5094913;28;20063;-66
2022/01/19 15:08:00;;;;;;;39.90;24.13;;;0.50;99.90;;;;;;5094875;28;20098;-66
2022/01/19 15:10:28;;;;;;;35.90;23.98;;;0.60;99.90;;;;;;5076969;28;20390;-66
2022/01/19 15:12:55;;;;;;;34.53;22.63;;;0.70;99.90;;;;;;5076596;28;20103;-66
2022/01/19 15:15:25;;;;;;;33.65;21.08;;;0.80;99.90;;;;;;5094746;28;20028;-67
2022/01/19 15:17:59;;;;;;;34.33;24.02;;;0.90;99.90;;;;;;5094729;28;20203;-66
2022/01/19 15:20:30;;;;;;;30.60;20.35;;;0.90;99.90;;;;;;5094507;28;20611;-66
2022/01/19 15:23:02;;;;;;;33.38;20.35;;;0.90;99.90;;;;;;5094547;28;20058;-65
2022/01/19 15:25:31;;;;;;;29.52;20.58;;;1.00;99.90;;;;;;5094445;28;20024;-66
2022/01/19 15:27:58;;;;;;;32.03;23.00;;;1.00;99.90;;;;;;5094681;28;20028;-66
2022/01/19 15:30:26;;;;;;;31.23;21.95;;;1.10;99.90;;;;;;5076226;28;20032;-66
2022/01/19 15:32:53;;;;;;;33.13;22.35;;;1.10;99.90;;;;;;5094406;28;20042;-67
2022/01/19 15:35:19;;;;;;;40.30;24.98;;;1.10;99.90;;;;;;5075280;28;20039;-66
2022/01/19 15:37:46;;;;;;;39.17;25.27;;;1.10;99.90;;;;;;5094538;28;20054;-66
2022/01/19 15:40:13;;;;;;;42.20;27.27;;;1.10;99.90;;;;;;5076034;28;20478;-65
2022/01/19 15:42:46;;;;;;;41.80;27.75;;;1.10;99.90;;;;;;5072431;28;20119;-68
2022/01/19 15:45:12;;;;;;;41.38;26.35;;;1.20;99.90;;;;;;5081734;28;20036;-66
2022/01/19 15:47:39;;;;;;;42.92;28.48;;;1.20;99.90;;;;;;5080413;28;20073;-66
2022/01/19 15:50:07;;;;;;;41.30;29.05;;;1.30;99.90;;;;;;5094671;28;20039;-66
2022/01/19 15:52:34;;;;;;;37.92;26.10;;;1.30;99.90;;;;;;5088688;28;20111;-66
2022/01/19 15:55:00;;;;;;;40.33;27.77;;;1.40;99.90;;;;;;5073806;28;20040;-65
2022/01/19 15:57:27;;;;;;;41.92;27.20;;;1.40;99.90;;;;;;5095364;28;20592;-67
2022/01/19 15:59:53;;;;;;;43.03;28.23;;;1.50;99.90;;;;;;5075539;28;20036;-67
2022/01/19 16:02:20;;;;;;;49.33;31.25;;;1.50;99.90;;;;;;5093895;28;20036;-65
2022/01/19 16:04:46;;;;;;;60.80;34.10;;;1.40;99.90;;;;;;5093777;28;20028;-65
2022/01/19 16:07:12;;;;;;;49.92;31.33;;;1.50;99.90;;;;;;5094077;28;20058;-65
2022/01/19 16:09:38;;;;;;;63.80;38.30;;;1.60;99.90;;;;;;5093960;28;20113;-66
2022/01/19 16:12:05;;;;;;;70.70;42.42;;;1.60;99.90;;;;;;5089178;28;20628;-66
2022/01/19 16:14:31;;;;;;;76.70;46.22;;;1.60;99.90;;;;;;5087798;28;20032;-66